Time;durP1;ratioP1;P1;durP2;ratioP2;P2;SDS_P1;SDS_P2;PMS_P1;PMS_P2;Temp;Humidity;BMP_temperature;BMP_pressure;BME280_temperature;BME280_humidity;BME280_pressure;Samples;Min_cycle;Max_cycle;Signal;HPM_P1;HPM_P2
2022/10/20 00:00:17;;;;;;;0.03;0.03;;;;;;;4.19;100.00;101172.03;5054387;28;20221;-77
2022/10/20 00:02:42;;;;;;;0.00;0.00;;;;;;;4.21;100.00;101161.81;5053968;28;20210;-76
2022/10/20 00:05:07;;;;;;;0.00;0.00;;;;;;;4.29;100.00;101155.13;5053885;28;20179;-77
2022/10/20 00:07:33;;;;;;;0.00;0.00;;;;;;;4.40;100.00;101146.09;5053668;28;20707;-76
2022/10/20 00:09:58;;;;;;;0.00;0.00;;;;;;;4.32;100.00;101149.22;5053663;28;20178;-76
2022/10/20 00:12:23;;;;;;;0.00;0.00;;;;;;;4.24;100.00;101142.38;5053766;28;20190;-76
2022/10/20 00:14:48;;;;;;;0.00;0.00;;;;;;;4.15;100.00;101143.88;5054188;28;20206;-76
2022/10/20 00:17:14;;;;;;;0.00;0.00;;;;;;;4.12;100.00;101138.97;5053784;28;20179;-75
2022/10/20 00:19:39;;;;;;;0.00;0.00;;;;;;;4.23;100.00;101137.22;5053763;28;20321;-76
2022/10/20 00:22:04;;;;;;;0.00;0.00;;;;;;;4.34;100.00;101133.56;5053763;28;20179;-76
2022/10/20 00:24:30;;;;;;;0.00;0.00;;;;;;;4.38;100.00;101123.88;5053481;28;20665;-76
2022/10/20 00:26:55;;;;;;;0.00;0.00;;;;;;;4.54;100.00;101128.38;5053272;28;20658;-76
2022/10/20 00:29:20;;;;;;;0.00;0.00;;;;;;;4.48;100.00;101126.69;5053397;28;20309;-76
2022/10/20 00:31:45;;;;;;;0.00;0.00;;;;;;;4.60;100.00;101118.41;5038105;28;20179;-77
2022/10/20 00:34:11;;;;;;;0.00;0.00;;;;;;;4.78;100.00;101118.09;5052085;28;20179;-75
2022/10/20 00:36:36;;;;;;;0.00;0.00;;;;;;;4.88;100.00;101115.44;5053067;28;20665;-76
2022/10/20 00:39:03;;;;;;;0.00;0.00;;;;;;;5.04;100.00;101116.41;5053338;28;20674;-77
2022/10/20 00:41:30;;;;;;;0.00;0.00;;;;;;;4.90;100.00;101107.88;5035381;28;20190;-76
2022/10/20 00:43:59;;;;;;;0.00;0.00;;;;;;;4.62;100.00;101106.25;5053371;28;20221;-76
2022/10/20 00:46:31;;;;;;;0.00;0.00;;;;;;;4.81;100.00;101103.22;5035059;28;20665;-77
2022/10/20 00:49:01;;;;;;;0.00;0.00;;;;;;;4.87;100.00;101088.63;5053171;28;20237;-76
2022/10/20 00:51:29;;;;;;;0.03;0.03;;;;;;;4.69;100.00;101093.34;5053133;28;20187;-76
2022/10/20 00:54:05;;;;;;;0.00;0.00;;;;;;;4.64;100.00;101098.72;5052925;28;20179;-76
2022/10/20 00:56:31;;;;;;;0.00;0.00;;;;;;;4.44;100.00;101088.50;5034866;28;20182;-76
2022/10/20 00:58:57;;;;;;;0.00;0.00;;;;;;;4.43;100.00;101095.00;5052375;28;20674;-76
2022/10/20 01:01:22;;;;;;;0.00;0.00;;;;;;;4.36;100.00;101098.97;5035273;28;20182;-76
2022/10/20 01:03:50;;;;;;;0.00;0.00;;;;;;;4.18;100.00;101084.69;5052616;28;20180;-76
2022/10/20 01:06:18;;;;;;;0.50;0.50;;;;;;;4.10;100.00;101076.22;5052677;28;20400;-76
2022/10/20 01:08:44;;;;;;;0.00;0.00;;;;;;;3.98;100.00;101087.16;5052219;28;20300;-76
2022/10/20 01:11:15;;;;;;;0.00;0.00;;;;;;;4.01;100.00;101075.03;5052660;28;20179;-76
2022/10/20 01:14:08;;;;;;;0.00;0.00;;;;;;;3.87;100.00;101067.28;5052673;28;20182;-76
2022/10/20 01:17:07;;;;;;;0.00;0.00;;;;;;;3.82;100.00;101074.53;5052968;28;20229;-77
2022/10/20 01:19:35;;;;;;;0.00;0.00;;;;;;;3.93;100.00;101060.09;5052400;28;20215;-76
2022/10/20 01:22:20;;;;;;;0.00;0.00;;;;;;;3.85;100.00;101068.63;5051270;28;20183;-76
2022/10/20 01:25:05;;;;;;;0.00;0.00;;;;;;;3.88;100.00;101060.00;5052595;28;20647;-77
2022/10/20 01:27:32;;;;;;;0.00;0.00;;;;;;;3.82;100.00;101050.22;5052249;28;20175;-76
2022/10/20 01:30:20;;;;;;;0.00;0.00;;;;;;;3.60;100.00;101058.28;5052279;28;20184;-76
2022/10/20 01:33:06;;;;;;;0.00;0.00;;;;;;;3.56;100.00;101049.88;5052173;28;20187;-76
2022/10/20 01:35:56;;;;;;;0.00;0.00;;;;;;;3.59;100.00;101057.47;5034286;28;20179;-76
2022/10/20 01:38:29;;;;;;;0.60;0.60;;;;;;;3.53;100.00;101052.28;5052105;28;20195;-76
2022/10/20 01:41:05;;;;;;;0.00;0.00;;;;;;;3.40;100.00;101048.03;5052217;28;20171;-76
2022/10/20 01:43:34;;;;;;;0.00;0.00;;;;;;;3.50;100.00;101050.06;5052212;28;20166;-77
2022/10/20 01:46:02;;;;;;;0.63;0.63;;;;;;;3.37;100.00;101039.63;5051918;28;20720;-76
2022/10/20 01:48:31;;;;;;;0.00;0.00;;;;;;;3.28;100.00;101048.13;5051879;28;20179;-76
2022/10/20 01:50:58;;;;;;;0.00;0.00;;;;;;;3.23;100.00;101042.66;5052204;28;20179;-76
2022/10/20 01:53:23;;;;;;;0.00;0.00;;;;;;;3.22;100.00;101040.22;5050521;28;20182;-75
2022/10/20 01:55:52;;;;;;;0.00;0.00;;;;;;;3.19;100.00;101036.16;5045307;28;20630;-75
2022/10/20 01:58:46;;;;;;;0.00;0.00;;;;;;;3.13;100.00;101025.50;5071085;28;20646;-76
2022/10/20 02:01:16;;;;;;;0.00;0.00;;;;;;;3.17;100.00;101024.75;5053814;28;20206;-75
2022/10/20 02:04:09;;;;;;;0.00;0.00;;;;;;;3.36;100.00;101017.19;5053715;28;20520;-76
2022/10/20 02:06:47;;;;;;;0.00;0.00;;;;;;;3.24;100.00;101013.78;5067074;28;20721;-76
2022/10/20 02:09:25;;;;;;;0.00;0.00;;;;;;;3.15;100.00;101012.56;5071446;28;20197;-76
2022/10/20 02:12:07;;;;;;;0.00;0.00;;;;;;;3.31;100.00;101021.69;5071508;28;20166;-75
2022/10/20 02:14:34;;;;;;;0.00;0.00;;;;;;;3.23;100.00;101006.75;5071529;28;20174;-76
2022/10/20 02:17:05;;;;;;;0.00;0.00;;;;;;;3.36;100.00;101013.69;5053269;28;20257;-75
2022/10/20 02:19:35;;;;;;;0.00;0.00;;;;;;;3.13;100.00;101004.72;5070562;28;20198;-75
2022/10/20 02:22:01;;;;;;;0.00;0.00;;;;;;;2.88;100.00;101002.44;5071276;28;20174;-75
2022/10/20 02:24:32;;;;;;;0.00;0.00;;;;;;;2.86;100.00;101004.59;5071180;28;20213;-76
2022/10/20 02:27:02;;;;;;;0.20;0.20;;;;;;;3.12;100.00;100994.16;5052963;28;20207;-76
2022/10/20 02:29:32;;;;;;;1.40;1.30;;;;;;;3.31;100.00;100995.50;5071307;28;20580;-77
2022/10/20 02:31:58;;;;;;;0.00;0.00;;;;;;;3.24;100.00;100994.88;5071053;28;20211;-76
2022/10/20 02:34:27;;;;;;;0.00;0.00;;;;;;;3.44;100.00;100991.63;5071118;28;20197;-76
2022/10/20 02:36:56;;;;;;;0.00;0.00;;;;;;;3.35;100.00;100982.34;5070800;28;20167;-76
2022/10/20 02:39:22;;;;;;;0.33;0.33;;;;;;;3.16;100.00;100979.91;5071221;28;20620;-76
2022/10/20 02:41:47;;;;;;;0.00;0.00;;;;;;;3.23;100.00;100971.66;5071212;28;20202;-76
2022/10/20 02:44:12;;;;;;;0.00;0.00;;;;;;;3.24;100.00;100982.19;5071108;28;20265;-76
2022/10/20 02:46:37;;;;;;;1.03;1.03;;;;;;;3.14;100.00;100973.13;5052880;28;20244;-75
2022/10/20 02:49:03;;;;;;;0.00;0.00;;;;;;;3.10;100.00;100963.91;5071190;28;20257;-75
2022/10/20 02:51:28;;;;;;;0.10;0.10;;;;;;;3.11;100.00;100963.66;5052984;28;20181;-76
2022/10/20 02:53:53;;;;;;;0.00;0.00;;;;;;;3.16;100.00;100957.50;5070522;28;20171;-75
2022/10/20 02:56:19;;;;;;;0.10;0.10;;;;;;;3.26;100.00;100965.75;5070550;28;20181;-75
2022/10/20 02:58:44;;;;;;;0.00;0.00;;;;;;;3.38;100.00;100949.44;5069991;28;20210;-76
2022/10/20 03:01:10;;;;;;;0.00;0.00;;;;;;;3.50;100.00;100958.22;5070936;28;20227;-75
2022/10/20 03:03:35;;;;;;;0.00;0.00;;;;;;;3.52;100.00;100951.50;5071818;28;20205;-75
2022/10/20 03:06:12;;;;;;;0.00;0.00;;;;;;;3.54;100.00;100951.25;5076054;28;20171;-76
2022/10/20 03:08:37;;;;;;;0.23;0.23;;;;;;;3.68;100.00;100955.19;5058501;28;20293;-75
2022/10/20 03:11:02;;;;;;;0.00;0.00;;;;;;;3.78;100.00;100955.31;5071527;28;20595;-76
2022/10/20 03:13:28;;;;;;;1.20;1.10;;;;;;;3.85;100.00;100950.53;5071111;28;20701;-76
2022/10/20 03:15:53;;;;;;;0.00;0.00;;;;;;;3.86;100.00;100944.03;5071165;28;20170;-75
2022/10/20 03:18:19;;;;;;;0.00;0.00;;;;;;;3.88;100.00;100949.19;5070692;28;20178;-75
2022/10/20 03:20:44;;;;;;;0.00;0.00;;;;;;;3.84;100.00;100950.78;5052877;28;20523;-76
2022/10/20 03:23:09;;;;;;;0.00;0.00;;;;;;;3.83;100.00;100936.44;5052711;28;20181;-76
2022/10/20 03:25:35;;;;;;;0.00;0.00;;;;;;;3.82;100.00;100940.22;5070520;28;20178;-76
2022/10/20 03:28:00;;;;;;;0.00;0.00;;;;;;;3.75;100.00;100934.19;5070407;28;20198;-76
2022/10/20 03:30:26;;;;;;;1.20;0.57;;;;;;;3.61;100.00;100921.31;5052867;28;20277;-75
2022/10/20 03:32:52;;;;;;;0.73;0.70;;;;;;;3.64;100.00;100931.66;5074511;28;20166;-76
2022/10/20 03:35:17;;;;;;;0.30;0.23;;;;;;;3.65;100.00;100922.47;5056438;28;20183;-76
2022/10/20 03:37:42;;;;;;;0.00;0.00;;;;;;;3.59;100.00;100924.28;5074354;28;20213;-75
2022/10/20 03:40:08;;;;;;;0.00;0.00;;;;;;;3.45;100.00;100918.44;5074521;28;20263;-76
2022/10/20 03:42:33;;;;;;;0.00;0.00;;;;;;;3.39;100.00;100911.38;5056356;28;20174;-76
2022/10/20 03:44:59;;;;;;;0.27;0.27;;;;;;;3.32;100.00;100909.91;5074249;28;20488;-76
2022/10/20 03:47:25;;;;;;;0.00;0.00;;;;;;;3.32;100.00;100915.31;5055849;28;20183;-76
2022/10/20 03:49:50;;;;;;;0.00;0.00;;;;;;;3.32;100.00;100912.63;5074520;28;20178;-76
2022/10/20 03:52:15;;;;;;;0.00;0.00;;;;;;;3.31;100.00;100914.50;5074369;28;20634;-76
2022/10/20 03:54:40;;;;;;;0.00;0.00;;;;;;;3.34;100.00;100911.31;5056039;28;20253;-75
2022/10/20 03:57:06;;;;;;;0.00;0.00;;;;;;;3.34;100.00;100905.91;5073777;28;20193;-76
2022/10/20 03:59:32;;;;;;;0.10;0.10;;;;;;;3.35;100.00;100906.75;5073354;28;20194;-76
2022/10/20 04:01:57;;;;;;;0.00;0.00;;;;;;;3.42;100.00;100910.84;5073940;28;20182;-76
2022/10/20 04:04:22;;;;;;;0.00;0.00;;;;;;;3.29;100.00;100913.94;5073990;28;20260;-76
2022/10/20 04:06:48;;;;;;;0.00;0.00;;;;;;;3.38;100.00;100901.63;5073996;28;20308;-76
2022/10/20 04:09:13;;;;;;;0.00;0.00;;;;;;;3.35;100.00;100904.84;5073822;28;20178;-75
2022/10/20 04:11:38;;;;;;;0.00;0.00;;;;;;;3.31;100.00;100898.31;5073923;28;20319;-76
2022/10/20 04:14:04;;;;;;;0.00;0.00;;;;;;;3.33;100.00;100888.09;5072997;28;20634;-76
2022/10/20 04:16:29;;;;;;;0.00;0.00;;;;;;;3.37;100.00;100893.78;5069634;28;20545;-75
2022/10/20 04:18:55;;;;;;;0.00;0.00;;;;;;;3.38;100.00;100887.31;5071554;28;20698;-76
2022/10/20 04:21:20;;;;;;;0.00;0.00;;;;;;;3.21;100.00;100871.19;5073788;28;20634;-77
2022/10/20 04:23:46;;;;;;;0.00;0.00;;;;;;;3.13;100.00;100866.22;5055332;28;20630;-76
2022/10/20 04:26:14;;;;;;;0.00;0.00;;;;;;;3.21;100.00;100860.41;5073283;28;20185;-76
2022/10/20 04:28:39;;;;;;;0.00;0.00;;;;;;;3.22;100.00;100852.03;5055245;28;20541;-76
2022/10/20 04:31:06;;;;;;;0.00;0.00;;;;;;;3.29;100.00;100854.53;5073395;28;20179;-76
2022/10/20 04:33:32;;;;;;;0.00;0.00;;;;;;;3.30;100.00;100845.38;5073733;28;20181;-76
2022/10/20 04:35:58;;;;;;;0.00;0.00;;;;;;;3.22;100.00;100835.03;5073579;28;20175;-76
2022/10/20 04:38:23;;;;;;;0.00;0.00;;;;;;;3.17;100.00;100830.38;5057738;28;20224;-76
2022/10/20 04:40:56;;;;;;;0.00;0.00;;;;;;;3.17;100.00;100832.25;5075321;28;20253;-77
2022/10/20 04:43:22;;;;;;;0.00;0.00;;;;;;;3.06;100.00;100833.22;5054485;28;20228;-77
2022/10/20 04:45:47;;;;;;;0.00;0.00;;;;;;;2.99;100.00;100834.22;5073281;28;20179;-76
2022/10/20 04:48:13;;;;;;;0.00;0.00;;;;;;;3.09;100.00;100838.13;5073179;28;20228;-76
2022/10/20 04:50:38;;;;;;;0.00;0.00;;;;;;;3.33;100.00;100833.25;5073085;28;20702;-76
2022/10/20 04:53:03;;;;;;;0.00;0.00;;;;;;;3.39;100.00;100840.34;5073139;28;20177;-76
2022/10/20 04:55:28;;;;;;;1.07;1.07;;;;;;;3.27;100.00;100840.47;5072843;28;20529;-76
2022/10/20 04:57:54;;;;;;;0.00;0.00;;;;;;;3.41;100.00;100827.41;5072316;28;20197;-76
2022/10/20 05:00:19;;;;;;;0.00;0.00;;;;;;;3.41;100.00;100822.00;5073078;28;20623;-77
2022/10/20 05:02:44;;;;;;;0.00;0.00;;;;;;;3.60;100.00;100823.25;5055000;28;20179;-76
2022/10/20 05:05:10;;;;;;;0.00;0.00;;;;;;;3.26;100.00;100826.16;5073023;28;20229;-76
2022/10/20 05:07:35;;;;;;;0.00;0.00;;;;;;;3.50;100.00;100820.47;5072460;28;20736;-76
2022/10/20 05:10:00;;;;;;;0.00;0.00;;;;;;;3.39;100.00;100827.66;5072621;28;20190;-76
2022/10/20 05:12:27;;;;;;;0.00;0.00;;;;;;;3.43;100.00;100812.56;5072687;28;20510;-76
2022/10/20 05:14:52;;;;;;;0.00;0.00;;;;;;;3.37;100.00;100810.09;5072693;28;20178;-76
2022/10/20 05:17:17;;;;;;;0.00;0.00;;;;;;;3.21;100.00;100809.09;5072248;28;20533;-76
2022/10/20 05:19:44;;;;;;;0.00;0.00;;;;;;;3.30;100.00;100802.16;5072423;28;20297;-76
2022/10/20 05:22:09;;;;;;;0.00;0.00;;;;;;;3.33;100.00;100800.84;5072887;28;20173;-76
2022/10/20 05:24:35;;;;;;;0.00;0.00;;;;;;;3.31;100.00;100802.97;5054521;28;20178;-76
2022/10/20 05:27:00;;;;;;;0.00;0.00;;;;;;;3.32;100.00;100810.81;5072167;28;20177;-76
2022/10/20 05:29:25;;;;;;;0.00;0.00;;;;;;;3.29;100.00;100803.22;5072393;28;20175;-77
2022/10/20 05:31:51;;;;;;;0.00;0.00;;;;;;;3.44;100.00;100803.38;5072271;28;20185;-77
2022/10/20 05:34:16;;;;;;;0.00;0.00;;;;;;;3.49;100.00;100795.34;5072615;28;20261;-77
2022/10/20 05:36:41;;;;;;;0.00;0.00;;;;;;;3.59;100.00;100795.44;5072021;28;20324;-76
2022/10/20 05:39:08;;;;;;;0.00;0.00;;;;;;;3.07;100.00;100800.59;5054131;28;20271;-76
2022/10/20 05:41:33;;;;;;;0.00;0.00;;;;;;;2.67;100.00;100795.50;5072017;28;20171;-76
2022/10/20 05:44:02;;;;;;;0.00;0.00;;;;;;;2.76;100.00;100790.50;5072110;28;20581;-76
2022/10/20 05:46:29;;;;;;;0.00;0.00;;;;;;;2.77;100.00;100787.53;5071675;28;20167;-76
2022/10/20 05:48:57;;;;;;;0.00;0.00;;;;;;;2.72;100.00;100786.66;5071973;28;20665;-76
2022/10/20 05:51:25;;;;;;;0.00;0.00;;;;;;;2.62;100.00;100779.28;5072161;28;20171;-75
2022/10/20 05:53:53;;;;;;;0.00;0.00;;;;;;;2.53;100.00;100776.19;5071618;28;20634;-73
2022/10/20 05:56:19;;;;;;;0.00;0.00;;;;;;;2.50;100.00;100773.16;5071784;28;20244;-73
2022/10/20 05:58:48;;;;;;;0.00;0.00;;;;;;;2.67;100.00;100787.41;5071075;28;20263;-73
2022/10/20 06:01:17;;;;;;;0.00;0.00;;;;;;;2.58;100.00;100792.41;5071884;28;20170;-73
2022/10/20 06:03:54;;;;;;;0.00;0.00;;;;;;;2.80;100.00;100795.13;5071297;28;20253;-73
2022/10/20 06:06:22;;;;;;;0.00;0.00;;;;;;;2.82;100.00;100786.78;5071368;28;20166;-74
2022/10/20 06:08:49;;;;;;;0.00;0.00;;;;;;;2.73;100.00;100785.59;5071855;28;20251;-73
2022/10/20 06:11:15;;;;;;;0.00;0.00;;;;;;;2.90;100.00;100781.78;5071332;28;20167;-74
2022/10/20 06:13:40;;;;;;;0.00;0.00;;;;;;;2.89;100.00;100774.75;5071164;28;20177;-73
2022/10/20 06:16:19;;;;;;;0.00;0.00;;;;;;;2.86;100.00;100777.94;5070995;28;20228;-74
2022/10/20 06:18:44;;;;;;;0.00;0.00;;;;;;;2.93;100.00;100775.88;5071020;28;20669;-73
2022/10/20 06:21:21;;;;;;;0.00;0.00;;;;;;;2.83;100.00;100770.34;5071109;28;20175;-73
2022/10/20 06:23:46;;;;;;;0.00;0.00;;;;;;;2.85;100.00;100770.91;5071018;28;20198;-73
2022/10/20 06:26:17;;;;;;;0.13;0.13;;;;;;;2.86;100.00;100771.72;5052815;28;20260;-73
2022/10/20 06:28:44;;;;;;;0.00;0.00;;;;;;;2.86;100.00;100767.13;5070897;28;20179;-74
2022/10/20 06:31:11;;;;;;;0.10;0.10;;;;;;;3.02;100.00;100773.50;5071059;28;20184;-73
2022/10/20 06:33:37;;;;;;;0.33;0.33;;;;;;;3.09;100.00;100759.84;5070919;28;20680;-74
2022/10/20 06:36:02;;;;;;;0.00;0.00;;;;;;;3.28;100.00;100774.59;5070585;28;20166;-73
2022/10/20 06:38:28;;;;;;;0.00;0.00;;;;;;;3.41;100.00;100776.91;5070654;28;20258;-73
2022/10/20 06:40:53;;;;;;;0.00;0.00;;;;;;;3.44;100.00;100776.38;5070776;28;20572;-73
2022/10/20 06:43:19;;;;;;;0.00;0.00;;;;;;;3.53;100.00;100777.56;5052757;28;20185;-74
2022/10/20 06:45:57;;;;;;;0.00;0.00;;;;;;;3.55;100.00;100788.09;5070902;28;20518;-74
2022/10/20 06:48:22;;;;;;;1.87;1.80;;;;;;;3.50;100.00;100779.97;5070801;28;20175;-73
2022/10/20 06:50:47;;;;;;;0.13;0.13;;;;;;;3.45;100.00;100782.59;5070616;28;20182;-73
2022/10/20 06:53:13;;;;;;;0.60;0.60;;;;;;;3.38;100.00;100771.19;5052624;28;20178;-73
2022/10/20 06:55:38;;;;;;;0.20;0.20;;;;;;;3.37;100.00;100764.97;5070319;28;20209;-74
2022/10/20 06:58:03;;;;;;;0.00;0.00;;;;;;;3.37;100.00;100751.47;5070165;28;20220;-73
2022/10/20 07:00:29;;;;;;;0.00;0.00;;;;;;;3.36;100.00;100757.16;5070633;28;20862;-73
2022/10/20 07:02:54;;;;;;;0.00;0.00;;;;;;;3.34;100.00;100749.31;5070507;28;20261;-74
2022/10/20 07:05:20;;;;;;;0.00;0.00;;;;;;;3.42;100.00;100756.09;5070672;28;20183;-73
2022/10/20 07:07:46;;;;;;;1.80;1.80;;;;;;;3.40;100.00;100747.44;5052330;28;20170;-74
2022/10/20 07:10:11;;;;;;;0.00;0.00;;;;;;;3.36;100.00;100757.16;5070210;28;20590;-73
2022/10/20 07:12:39;;;;;;;14.53;1.03;;;;;;;3.41;100.00;100758.00;5070387;28;20181;-74
2022/10/20 07:15:05;;;;;;;0.10;0.10;;;;;;;3.44;100.00;100754.78;5070481;28;20174;-73
2022/10/20 07:17:30;;;;;;;0.03;0.03;;;;;;;3.44;100.00;100733.16;5069932;28;20196;-74
2022/10/20 07:19:55;;;;;;;0.00;0.00;;;;;;;3.51;100.00;100731.09;5070414;28;20274;-73
2022/10/20 07:22:21;;;;;;;0.00;0.00;;;;;;;3.59;100.00;100718.97;5070528;28;20178;-72
2022/10/20 07:24:46;;;;;;;0.00;0.00;;;;;;;3.67;100.00;100720.41;5070317;28;20211;-73
2022/10/20 07:27:11;;;;;;;0.00;0.00;;;;;;;3.82;100.00;100729.44;5070117;28;20182;-74
2022/10/20 07:29:37;;;;;;;0.00;0.00;;;;;;;3.99;100.00;100721.16;5070173;28;20536;-73
2022/10/20 07:32:02;;;;;;;0.10;0.10;;;;;;;4.20;100.00;100724.81;5070191;28;20166;-73
2022/10/20 07:34:27;;;;;;;0.00;0.00;;;;;;;4.48;100.00;100726.28;5051161;28;20630;-73
2022/10/20 07:36:54;;;;;;;0.00;0.00;;;;;;;4.69;100.00;100724.47;5049735;28;20171;-73
2022/10/20 07:39:19;;;;;;;0.83;0.83;;;;;;;4.85;100.00;100717.22;5068761;28;20673;-74
2022/10/20 07:41:46;;;;;;;1.20;0.60;;;;;;;4.97;100.00;100713.19;5069841;28;20209;-73
2022/10/20 07:44:12;;;;;;;0.50;0.50;;;;;;;5.11;100.00;100723.53;5070000;28;20185;-73
2022/10/20 07:46:38;;;;;;;0.33;0.33;;;;;;;5.25;100.00;100720.03;5070186;28;20179;-75
2022/10/20 07:49:03;;;;;;;0.57;0.57;;;;;;;5.38;100.00;100721.38;5067488;28;20190;-73
2022/10/20 07:51:30;;;;;;;0.27;0.27;;;;;;;5.44;100.00;100716.78;5069931;28;20698;-73
2022/10/20 07:54:07;;;;;;;0.00;0.00;;;;;;;5.52;100.00;100718.97;5070168;28;20174;-74
2022/10/20 07:56:38;;;;;;;0.00;0.00;;;;;;;5.60;100.00;100727.34;5069954;28;20166;-73
2022/10/20 07:59:05;;;;;;;1.57;0.73;;;;;;;5.72;100.00;100718.13;5069710;28;20279;-74
2022/10/20 08:01:30;;;;;;;0.50;0.23;;;;;;;5.82;100.00;100713.53;5070043;28;20209;-74
2022/10/20 08:03:56;;;;;;;0.53;0.53;;;;;;;5.89;100.00;100703.19;5070021;28;20913;-75
2022/10/20 08:06:21;;;;;;;0.40;0.40;;;;;;;5.89;100.00;100702.38;5069802;28;20166;-76
2022/10/20 08:08:47;;;;;;;4.47;2.97;;;;;;;5.92;100.00;100708.09;5069899;28;20186;-72
2022/10/20 08:11:12;;;;;;;0.60;0.30;;;;;;;6.03;100.00;100713.50;5070050;28;20703;-72
2022/10/20 08:13:39;;;;;;;0.30;0.30;;;;;;;6.14;100.00;100718.63;5069662;28;20178;-72
2022/10/20 08:16:05;;;;;;;1.50;1.40;;;;;;;6.21;100.00;100721.06;5069441;28;20257;-72
2022/10/20 08:18:31;;;;;;;0.73;0.73;;;;;;;6.35;100.00;100722.09;5071110;28;20228;-72
2022/10/20 08:21:15;;;;;;;1.07;0.83;;;;;;;6.46;100.00;100712.03;5073279;28;20538;-71
2022/10/20 08:23:43;;;;;;;0.37;0.37;;;;;;;6.55;100.00;100719.31;5052306;28;20183;-72
2022/10/20 08:26:09;;;;;;;0.97;0.93;;;;;;;6.63;100.00;100709.78;5072886;28;20189;-72
2022/10/20 08:28:35;;;;;;;1.80;1.70;;;;;;;6.67;100.00;100702.72;5054953;28;20194;-72
2022/10/20 08:31:05;;;;;;;0.70;0.70;;;;;;;6.70;100.00;100701.34;5055136;28;20182;-72
2022/10/20 08:33:31;;;;;;;0.30;0.30;;;;;;;6.62;100.00;100700.00;5072978;28;20182;-72
2022/10/20 08:36:04;;;;;;;1.03;0.93;;;;;;;6.59;100.00;100705.19;5072713;28;20304;-71
2022/10/20 08:38:30;;;;;;;2.43;2.27;;;;;;;6.60;100.00;100702.19;5072915;28;20216;-72
2022/10/20 08:40:57;;;;;;;0.67;0.67;;;;;;;6.72;100.00;100708.13;5072945;28;20530;-72
2022/10/20 08:43:22;;;;;;;1.50;1.40;;;;;;;6.79;100.00;100702.38;5072728;28;20641;-72
2022/10/20 08:45:48;;;;;;;1.00;0.97;;;;;;;6.91;100.00;100691.97;5071689;28;20427;-72
2022/10/20 08:48:18;;;;;;;0.63;0.63;;;;;;;7.00;100.00;100701.19;5070369;28;20265;-71
2022/10/20 08:50:45;;;;;;;0.37;0.30;;;;;;;7.07;100.00;100695.41;5072417;28;20235;-72
2022/10/20 08:53:11;;;;;;;0.00;0.00;;;;;;;7.11;100.00;100691.88;5072584;28;20189;-72
2022/10/20 08:55:37;;;;;;;1.03;1.03;;;;;;;7.19;100.00;100689.63;5054418;28;20178;-72
2022/10/20 08:58:06;;;;;;;0.73;0.70;;;;;;;7.24;100.00;100687.72;5072174;28;20209;-72
2022/10/20 09:00:34;;;;;;;0.60;0.53;;;;;;;7.39;100.00;100690.31;5072230;28;20297;-72
2022/10/20 09:03:15;;;;;;;1.70;1.60;;;;;;;7.54;100.00;100685.84;5072662;28;20541;-72
2022/10/20 09:05:42;;;;;;;1.33;1.33;;;;;;;7.70;100.00;100688.13;5054424;28;20170;-72
2022/10/20 09:08:08;;;;;;;0.03;0.03;;;;;;;7.76;100.00;100686.97;5072229;28;20174;-72
2022/10/20 09:10:40;;;;;;;0.00;0.00;;;;;;;7.91;99.79;100687.94;5072412;28;20228;-72
2022/10/20 09:13:16;;;;;;;0.60;0.60;;;;;;;7.91;97.85;100685.22;5069177;28;20265;-72
2022/10/20 09:15:42;;;;;;;0.63;0.50;;;;;;;8.01;96.84;100685.13;5062970;28;20175;-71
2022/10/20 09:18:12;;;;;;;1.03;1.03;;;;;;;7.99;96.64;100679.97;5071911;28;20460;-71
2022/10/20 09:21:01;;;;;;;0.00;0.00;;;;;;;8.09;96.02;100689.09;5071971;28;20657;-72
2022/10/20 09:23:35;;;;;;;0.73;0.73;;;;;;;8.23;95.62;100679.16;5072146;28;20190;-71
2022/10/20 09:26:01;;;;;;;1.10;0.90;;;;;;;8.33;95.32;100681.75;5072094;28;20636;-71
2022/10/20 09:28:27;;;;;;;0.00;0.00;;;;;;;8.39;94.32;100671.63;5072101;28;20186;-75
2022/10/20 09:30:54;;;;;;;0.20;0.10;;;;;;;8.46;94.39;100683.00;5072031;28;20183;-75
2022/10/20 09:33:27;;;;;;;0.00;0.00;;;;;;;8.60;94.43;100679.28;5071989;28;20634;-75
2022/10/20 09:35:55;;;;;;;0.00;0.00;;;;;;;8.64;93.63;100683.03;5070846;28;20642;-75
2022/10/20 09:38:25;;;;;;;0.00;0.00;;;;;;;8.70;93.76;100685.69;5068955;28;20187;-75
2022/10/20 09:41:05;;;;;;;0.83;0.83;;;;;;;8.80;92.44;100680.91;5071405;28;20178;-75
2022/10/20 09:43:31;;;;;;;0.10;0.10;;;;;;;8.93;92.26;100676.63;5071224;28;20182;-75
2022/10/20 09:46:05;;;;;;;0.27;0.27;;;;;;;8.94;91.70;100670.09;5048143;28;20186;-74
2022/10/20 09:48:41;;;;;;;0.57;0.57;;;;;;;9.01;91.03;100667.00;5069658;28;20182;-75
2022/10/20 09:51:22;;;;;;;0.93;0.90;;;;;;;9.01;90.29;100659.63;5068879;28;20314;-75
2022/10/20 09:53:52;;;;;;;0.10;0.10;;;;;;;9.03;90.65;100653.88;5071431;28;20178;-76
2022/10/20 09:56:26;;;;;;;0.10;0.10;;;;;;;9.12;90.47;100646.69;5071478;28;20218;-75
2022/10/20 09:58:52;;;;;;;0.43;0.43;;;;;;;9.09;90.60;100641.78;5070348;28;20540;-74
2022/10/20 10:01:18;;;;;;;0.30;0.30;;;;;;;9.09;90.14;100647.25;5069941;28;20214;-75
2022/10/20 10:03:47;;;;;;;0.00;0.00;;;;;;;9.11;90.18;100634.13;5069746;28;20595;-75
2022/10/20 10:06:37;;;;;;;0.00;0.00;;;;;;;9.25;90.00;100634.97;5070538;28;20178;-75
2022/10/20 10:09:41;;;;;;;1.13;0.93;;;;;;;9.29;89.63;100618.88;5053237;28;20179;-76
2022/10/20 10:12:09;;;;;;;0.30;0.30;;;;;;;9.33;88.99;100603.50;5070330;28;20202;-76
2022/10/20 10:14:35;;;;;;;0.60;0.60;;;;;;;9.31;88.86;100597.56;5070362;28;20186;-75
2022/10/20 10:17:01;;;;;;;0.00;0.00;;;;;;;9.38;88.75;100596.03;5066884;28;20182;-75
2022/10/20 10:19:29;;;;;;;0.20;0.10;;;;;;;9.48;88.22;100595.06;5055422;28;20562;-75
2022/10/20 10:22:01;;;;;;;0.50;0.50;;;;;;;9.58;88.09;100594.09;5068906;28;20212;-75
2022/10/20 10:24:35;;;;;;;0.83;0.83;;;;;;;9.52;87.45;100591.44;5050541;28;20176;-76
2022/10/20 10:27:01;;;;;;;1.50;1.50;;;;;;;9.64;87.99;100601.84;5070935;28;20177;-75
2022/10/20 10:29:33;;;;;;;0.17;0.17;;;;;;;9.63;87.91;100591.25;5071453;28;20179;-76
2022/10/20 10:32:22;;;;;;;0.47;0.47;;;;;;;9.63;87.66;100578.41;5071201;28;20641;-76
2022/10/20 10:35:37;;;;;;;0.23;0.23;;;;;;;9.81;87.90;100565.78;5071413;28;20202;-75
2022/10/20 10:38:02;;;;;;;2.40;0.60;;;;;;;9.86;87.76;100570.38;5018595;28;20194;-76
2022/10/20 10:40:35;;;;;;;0.40;0.40;;;;;;;9.86;87.27;100567.63;5050737;28;20210;-76
2022/10/20 10:43:28;;;;;;;0.20;0.20;;;;;;;9.89;87.47;100559.63;5070759;28;20652;-75
2022/10/20 10:46:10;;;;;;;0.53;0.53;;;;;;;10.05;87.84;100552.75;5070739;28;20226;-75
2022/10/20 10:49:08;;;;;;;0.33;0.33;;;;;;;10.07;87.42;100547.78;5070939;28;20183;-75
2022/10/20 10:51:46;;;;;;;0.20;0.20;;;;;;;10.11;87.28;100559.72;5070985;28;20163;-75
2022/10/20 10:54:31;;;;;;;0.00;0.00;;;;;;;10.23;87.44;100552.94;5052561;28;20177;-75
2022/10/20 10:57:35;;;;;;;0.23;0.23;;;;;;;10.62;88.21;100541.44;5070400;28;20649;-75
2022/10/20 11:00:09;;;;;;;1.07;0.53;;;;;;;10.76;87.32;100538.66;5070663;28;20197;-76
2022/10/20 11:03:15;;;;;;;4.33;1.50;;;;;;;10.76;85.81;100535.91;5053024;28;20221;-75
2022/10/20 11:05:52;;;;;;;0.93;0.93;;;;;;;10.84;85.41;100525.03;5070448;28;20183;-76
2022/10/20 11:08:25;;;;;;;0.47;0.47;;;;;;;10.66;84.95;100523.28;5070758;28;20174;-75
2022/10/20 11:11:01;;;;;;;0.00;0.00;;;;;;;10.81;85.88;100513.91;5070878;28;20171;-75
2022/10/20 11:13:42;;;;;;;6.43;1.07;;;;;;;10.92;85.00;100518.81;5070261;28;20179;-76
2022/10/20 11:16:28;;;;;;;4.27;4.00;;;;;;;10.96;84.03;100508.88;5061547;28;20225;-74
2022/10/20 11:19:17;;;;;;;0.93;0.60;;;;;;;10.84;84.09;100507.81;5065469;28;20752;-73
2022/10/20 11:22:01;;;;;;;0.13;0.13;;;;;;;10.96;84.99;100508.06;5058134;28;20171;-72
2022/10/20 11:24:47;;;;;;;0.13;0.13;;;;;;;11.31;85.88;100515.34;5068602;28;20603;-73
2022/10/20 11:27:17;;;;;;;0.97;0.73;;;;;;;11.39;84.65;100510.22;5060137;28;20269;-73
2022/10/20 11:29:50;;;;;;;0.50;0.50;;;;;;;11.59;85.20;100493.25;5047250;28;20239;-72
2022/10/20 11:32:35;;;;;;;0.27;0.27;;;;;;;11.62;84.48;100487.16;5070609;28;20510;-73
2022/10/20 11:35:21;;;;;;;1.13;1.13;;;;;;;11.65;83.96;100491.97;5064512;28;20179;-73
2022/10/20 11:37:53;;;;;;;0.57;0.57;;;;;;;11.84;83.18;100491.72;5068084;28;20209;-73